Fairburn, SD

6:07 PM MDT on May 26, 2017 (GMT -0600)
MCSPS2 | | Change Station

Elev 4047 ft 43.73 °N, 103.35 °W | Updated 10 days ago

Rain
Rain
57.0 °F
Feels Like 57.0 °F
N
2.0
Wind Variable Wind from NNW
Gusts 6.0 mph

Today
High -- | Low -- °F
--% Chance of Precip.
Yesterday
High -- | Low -- °F
Precip. -- in
Pressure 29.93 in
Visibility 10.0 miles
Clouds Overcast 6500 ft
Dew Point 47 °F
Humidity 68%
Rainfall 0.13 in
Snow Depth Not available.
5:18 AM 8:23 PM
New Moon, 2% visible
METAR KRAP 262352Z 17007KT 10SM OVC065 16/03 A2993 RMK AO2 SLP134 T01560033 10194 20156 53012
Pressure 29.93 in
Visibility 10.0 miles
Clouds Overcast 6500 ft
Dew Point 47 °F
Humidity 68%
Rainfall 0.13 in
Snow Depth Not available.
5:18 AM 8:23 PM
New Moon, 2% visible
METAR KRAP 262352Z 17007KT 10SM OVC065 16/03 A2993 RMK AO2 SLP134 T01560033 10194 20156 53012

Get Severe Weather Alerts

Thanks for signing up!

Be on the lookout for a verification email in your inbox.

You'll start receiving the daily forecast at 6 AM.

×

10-Day Weather Forecast

Almanac

Astronomy

May. 26, 2017 Rise Set
Actual Time
Civil Twilight
Nautical Twilight
Astronomical Twilight
Moon
Length of Visible Light
Length of Day
Tomorrow will be .
, % of the Moon is Illuminated

Today's Extremes

State Highs State Lows

Community

WunderPhotos

Category 6

Welcome to Category 6. This is the collective home for Weather Underground's featured writeups by Dr. Jeff Masters (right), Bob Henson (left), Chris Burt, and other regular contributors.

Nearby

Air Quality

  Air Quality AQ Index Pollutant
Not available.

Snow Depth

Station Depth Elevation

Earthquake Activity

City Distance Mag. Time & Date
Minimum magnitude displayed is 2.5.

Coastal Water Temperatures

Place Temperature

Stations

Nearby Weather Stations

Station Location Temp. Windchill Dew Point Humidity Wind Precip. Elev Updated Type
                   

Watches & Warnings

There are currently no watches in effect.